sensor_id;sensor_type;location;lat;lon;timestamp;P1;durP1;ratioP1;P2;durP2;ratioP2
64857;SDS011;51335;51.148;6.950;2024-02-28T00:00:19;44.95;;;19.13;;
64857;SDS011;51335;51.148;6.950;2024-02-28T00:00:49;42.67;;;18.48;;
64857;SDS011;51335;51.148;6.950;2024-02-28T00:01:20;45.35;;;19.13;;
64857;SDS011;51335;51.148;6.950;2024-02-28T00:01:50;41.00;;;18.45;;
64857;SDS011;51335;51.148;6.950;2024-02-28T00:02:21;38.70;;;18.92;;
64857;SDS011;51335;51.148;6.950;2024-02-28T00:02:51;40.55;;;18.25;;
64857;SDS011;51335;51.148;6.950;2024-02-28T00:03:21;38.53;;;18.05;;
64857;SDS011;51335;51.148;6.950;2024-02-28T00:03:52;39.38;;;18.20;;
64857;SDS011;51335;51.148;6.950;2024-02-28T00:04:22;35.88;;;17.00;;
64857;SDS011;51335;51.148;6.950;2024-02-28T00:04:52;43.17;;;18.58;;
64857;SDS011;51335;51.148;6.950;2024-02-28T00:05:22;37.78;;;17.95;;
64857;SDS011;51335;51.148;6.950;2024-02-28T00:05:53;39.28;;;18.30;;
64857;SDS011;51335;51.148;6.950;2024-02-28T00:06:23;37.67;;;17.80;;
64857;SDS011;51335;51.148;6.950;2024-02-28T00:06:53;37.25;;;18.38;;
64857;SDS011;51335;51.148;6.950;2024-02-28T00:07:23;35.03;;;17.45;;
64857;SDS011;51335;51.148;6.950;2024-02-28T00:07:54;36.13;;;16.55;;
64857;SDS011;51335;51.148;6.950;2024-02-28T00:08:24;38.33;;;17.98;;
64857;SDS011;51335;51.148;6.950;2024-02-28T00:08:54;38.33;;;18.20;;
64857;SDS011;51335;51.148;6.950;2024-02-28T00:09:24;39.10;;;17.38;;
64857;SDS011;51335;51.148;6.950;2024-02-28T00:09:55;38.70;;;17.42;;
64857;SDS011;51335;51.148;6.950;2024-02-28T00:10:25;38.40;;;17.27;;
64857;SDS011;51335;51.148;6.950;2024-02-28T00:10:55;40.03;;;17.88;;
64857;SDS011;51335;51.148;6.950;2024-02-28T00:11:25;43.00;;;19.40;;
64857;SDS011;51335;51.148;6.950;2024-02-28T00:11:55;39.95;;;18.80;;
64857;SDS011;51335;51.148;6.950;2024-02-28T00:12:26;42.28;;;19.30;;
64857;SDS011;51335;51.148;6.950;2024-02-28T00:12:56;41.20;;;17.92;;
64857;SDS011;51335;51.148;6.950;2024-02-28T00:13:26;44.35;;;19.10;;
64857;SDS011;51335;51.148;6.950;2024-02-28T00:13:56;43.75;;;19.10;;
64857;SDS011;51335;51.148;6.950;2024-02-28T00:14:27;43.92;;;18.70;;
64857;SDS011;51335;51.148;6.950;2024-02-28T00:14:57;44.55;;;19.27;;
64857;SDS011;51335;51.148;6.950;2024-02-28T00:15:27;40.03;;;18.55;;
64857;SDS011;51335;51.148;6.950;2024-02-28T00:15:57;46.55;;;18.98;;
64857;SDS011;51335;51.148;6.950;2024-02-28T00:16:28;43.22;;;18.50;;
64857;SDS011;51335;51.148;6.950;2024-02-28T00:16:58;43.92;;;19.98;;
64857;SDS011;51335;51.148;6.950;2024-02-28T00:17:28;43.38;;;19.65;;
64857;SDS011;51335;51.148;6.950;2024-02-28T00:17:58;40.03;;;18.38;;
64857;SDS011;51335;51.148;6.950;2024-02-28T00:18:29;40.88;;;18.70;;
64857;SDS011;51335;51.148;6.950;2024-02-28T00:18:59;42.38;;;19.02;;
64857;SDS011;51335;51.148;6.950;2024-02-28T00:19:29;40.80;;;18.27;;
64857;SDS011;51335;51.148;6.950;2024-02-28T00:19:59;45.85;;;18.70;;
64857;SDS011;51335;51.148;6.950;2024-02-28T00:20:30;42.10;;;18.77;;
64857;SDS011;51335;51.148;6.950;2024-02-28T00:21:00;42.00;;;18.42;;
64857;SDS011;51335;51.148;6.950;2024-02-28T00:21:30;41.90;;;18.90;;
64857;SDS011;51335;51.148;6.950;2024-02-28T00:22:00;43.55;;;18.90;;
64857;SDS011;51335;51.148;6.950;2024-02-28T00:22:31;41.42;;;18.75;;
64857;SDS011;51335;51.148;6.950;2024-02-28T00:23:01;39.95;;;18.80;;
64857;SDS011;51335;51.148;6.950;2024-02-28T00:23:31;42.92;;;19.52;;
64857;SDS011;51335;51.148;6.950;2024-02-28T00:24:01;40.75;;;19.27;;
64857;SDS011;51335;51.148;6.950;2024-02-28T00:24:32;43.60;;;19.33;;
64857;SDS011;51335;51.148;6.950;2024-02-28T00:25:02;38.60;;;17.63;;
64857;SDS011;51335;51.148;6.950;2024-02-28T00:25:33;35.88;;;17.52;;
64857;SDS011;51335;51.148;6.950;2024-02-28T00:26:03;40.90;;;17.65;;
64857;SDS011;51335;51.148;6.950;2024-02-28T00:26:33;39.08;;;19.05;;
64857;SDS011;51335;51.148;6.950;2024-02-28T00:27:04;36.47;;;17.02;;
64857;SDS011;51335;51.148;6.950;2024-02-28T00:27:34;37.42;;;16.80;;
64857;SDS011;51335;51.148;6.950;2024-02-28T00:28:05;38.67;;;18.60;;
64857;SDS011;51335;51.148;6.950;2024-02-28T00:28:35;37.17;;;16.90;;
64857;SDS011;51335;51.148;6.950;2024-02-28T00:29:05;37.08;;;16.80;;
64857;SDS011;51335;51.148;6.950;2024-02-28T00:29:35;40.03;;;17.48;;
64857;SDS011;51335;51.148;6.950;2024-02-28T00:30:06;41.13;;;18.30;;
64857;SDS011;51335;51.148;6.950;2024-02-28T00:30:36;37.22;;;18.27;;
64857;SDS011;51335;51.148;6.950;2024-02-28T00:31:07;34.38;;;17.23;;
64857;SDS011;51335;51.148;6.950;2024-02-28T00:31:37;43.25;;;17.73;;
64857;SDS011;51335;51.148;6.950;2024-02-28T00:32:07;33.08;;;17.50;;
64857;SDS011;51335;51.148;6.950;2024-02-28T00:32:37;36.20;;;17.27;;
64857;SDS011;51335;51.148;6.950;2024-02-28T00:33:08;38.85;;;17.75;;
64857;SDS011;51335;51.148;6.950;2024-02-28T00:33:38;41.70;;;17.40;;
64857;SDS011;51335;51.148;6.950;2024-02-28T00:34:08;37.90;;;17.83;;
64857;SDS011;51335;51.148;6.950;2024-02-28T00:34:38;40.42;;;17.98;;
64857;SDS011;51335;51.148;6.950;2024-02-28T00:35:08;36.78;;;17.52;;
64857;SDS011;51335;51.148;6.950;2024-02-28T00:35:39;42.08;;;18.90;;
64857;SDS011;51335;51.148;6.950;2024-02-28T00:36:09;40.38;;;18.35;;
64857;SDS011;51335;51.148;6.950;2024-02-28T00:36:39;40.30;;;18.75;;
64857;SDS011;51335;51.148;6.950;2024-02-28T00:37:10;38.70;;;17.80;;
64857;SDS011;51335;51.148;6.950;2024-02-28T00:37:40;37.55;;;17.23;;
64857;SDS011;51335;51.148;6.950;2024-02-28T00:38:10;38.30;;;17.42;;
64857;SDS011;51335;51.148;6.950;2024-02-28T00:38:41;41.90;;;18.70;;
64857;SDS011;51335;51.148;6.950;2024-02-28T00:39:11;37.80;;;18.60;;
64857;SDS011;51335;51.148;6.950;2024-02-28T00:39:42;45.78;;;18.33;;
64857;SDS011;51335;51.148;6.950;2024-02-28T00:40:14;44.03;;;18.65;;
64857;SDS011;51335;51.148;6.950;2024-02-28T00:40:45;36.08;;;17.38;;
64857;SDS011;51335;51.148;6.950;2024-02-28T00:41:15;40.58;;;18.75;;
64857;SDS011;51335;51.148;6.950;2024-02-28T00:41:45;43.53;;;18.25;;
64857;SDS011;51335;51.148;6.950;2024-02-28T00:42:15;38.90;;;17.40;;
64857;SDS011;51335;51.148;6.950;2024-02-28T00:42:46;43.30;;;17.65;;
64857;SDS011;51335;51.148;6.950;2024-02-28T00:43:16;39.13;;;18.27;;
64857;SDS011;51335;51.148;6.950;2024-02-28T00:43:46;41.97;;;17.45;;
64857;SDS011;51335;51.148;6.950;2024-02-28T00:44:16;41.03;;;18.52;;
64857;SDS011;51335;51.148;6.950;2024-02-28T00:44:47;40.17;;;17.45;;
64857;SDS011;51335;51.148;6.950;2024-02-28T00:45:17;36.25;;;17.10;;
64857;SDS011;51335;51.148;6.950;2024-02-28T00:45:47;38.17;;;17.38;;
64857;SDS011;51335;51.148;6.950;2024-02-28T00:46:17;35.53;;;17.60;;
64857;SDS011;51335;51.148;6.950;2024-02-28T00:46:48;36.25;;;17.23;;
64857;SDS011;51335;51.148;6.950;2024-02-28T00:47:18;35.95;;;17.35;;
64857;SDS011;51335;51.148;6.950;2024-02-28T00:47:48;40.75;;;16.88;;
64857;SDS011;51335;51.148;6.950;2024-02-28T00:48:18;37.47;;;17.63;;
64857;SDS011;51335;51.148;6.950;2024-02-28T00:48:49;40.40;;;17.40;;
64857;SDS011;51335;51.148;6.950;2024-02-28T00:49:19;36.83;;;17.65;;
64857;SDS011;51335;51.148;6.950;2024-02-28T00:49:49;37.08;;;17.23;;
64857;SDS011;51335;51.148;6.950;2024-02-28T00:50:19;37.22;;;16.85;;
64857;SDS011;51335;51.148;6.950;2024-02-28T00:50:50;43.55;;;18.35;;
64857;SDS011;51335;51.148;6.950;2024-02-28T00:51:20;40.15;;;18.80;;
64857;SDS011;51335;51.148;6.950;2024-02-28T00:51:50;42.38;;;18.23;;
64857;SDS011;51335;51.148;6.950;2024-02-28T00:52:21;48.55;;;19.40;;
64857;SDS011;51335;51.148;6.950;2024-02-28T00:52:51;42.40;;;18.00;;
64857;SDS011;51335;51.148;6.950;2024-02-28T00:53:21;42.40;;;18.95;;
64857;SDS011;51335;51.148;6.950;2024-02-28T00:53:51;43.85;;;17.70;;
64857;SDS011;51335;51.148;6.950;2024-02-28T00:54:21;39.95;;;18.25;;
64857;SDS011;51335;51.148;6.950;2024-02-28T00:54:52;40.00;;;18.30;;
64857;SDS011;51335;51.148;6.950;2024-02-28T00:55:22;37.97;;;17.83;;
64857;SDS011;51335;51.148;6.950;2024-02-28T00:55:52;41.83;;;17.95;;
64857;SDS011;51335;51.148;6.950;2024-02-28T00:56:22;38.22;;;17.38;;
64857;SDS011;51335;51.148;6.950;2024-02-28T00:56:53;36.67;;;17.80;;
64857;SDS011;51335;51.148;6.950;2024-02-28T00:57:23;39.50;;;18.33;;
64857;SDS011;51335;51.148;6.950;2024-02-28T00:57:53;46.17;;;18.58;;
64857;SDS011;51335;51.148;6.950;2024-02-28T00:58:23;40.25;;;18.10;;
64857;SDS011;51335;51.148;6.950;2024-02-28T00:58:54;44.67;;;18.60;;
64857;SDS011;51335;51.148;6.950;2024-02-28T00:59:24;42.33;;;17.95;;
64857;SDS011;51335;51.148;6.950;2024-02-28T00:59:54;43.03;;;18.70;;
64857;SDS011;51335;51.148;6.950;2024-02-28T01:00:24;41.55;;;18.02;;
64857;SDS011;51335;51.148;6.950;2024-02-28T01:00:55;37.90;;;17.65;;
64857;SDS011;51335;51.148;6.950;2024-02-28T01:01:25;40.35;;;18.48;;
64857;SDS011;51335;51.148;6.950;2024-02-28T01:01:55;36.60;;;17.05;;
64857;SDS011;51335;51.148;6.950;2024-02-28T01:02:25;42.55;;;18.65;;
64857;SDS011;51335;51.148;6.950;2024-02-28T01:02:56;40.97;;;18.52;;
64857;SDS011;51335;51.148;6.950;2024-02-28T01:03:26;37.38;;;17.95;;
64857;SDS011;51335;51.148;6.950;2024-02-28T01:03:56;41.00;;;18.27;;
64857;SDS011;51335;51.148;6.950;2024-02-28T01:04:26;41.55;;;18.15;;
64857;SDS011;51335;51.148;6.950;2024-02-28T01:04:57;40.67;;;18.40;;
64857;SDS011;51335;51.148;6.950;2024-02-28T01:05:27;40.83;;;18.50;;
64857;SDS011;51335;51.148;6.950;2024-02-28T01:05:57;37.13;;;18.17;;
64857;SDS011;51335;51.148;6.950;2024-02-28T01:06:27;38.55;;;18.52;;
64857;SDS011;51335;51.148;6.950;2024-02-28T01:06:58;41.10;;;17.63;;
64857;SDS011;51335;51.148;6.950;2024-02-28T01:07:28;42.05;;;18.55;;
64857;SDS011;51335;51.148;6.950;2024-02-28T01:07:58;41.30;;;18.25;;
64857;SDS011;51335;51.148;6.950;2024-02-28T01:08:28;42.67;;;18.98;;
64857;SDS011;51335;51.148;6.950;2024-02-28T01:08:59;40.58;;;18.60;;
64857;SDS011;51335;51.148;6.950;2024-02-28T01:09:29;40.42;;;18.95;;
64857;SDS011;51335;51.148;6.950;2024-02-28T01:09:59;41.53;;;18.88;;
64857;SDS011;51335;51.148;6.950;2024-02-28T01:10:29;38.92;;;17.73;;
64857;SDS011;51335;51.148;6.950;2024-02-28T01:11:00;43.38;;;18.92;;
64857;SDS011;51335;51.148;6.950;2024-02-28T01:11:30;42.47;;;18.02;;
64857;SDS011;51335;51.148;6.950;2024-02-28T01:12:00;38.83;;;17.98;;
64857;SDS011;51335;51.148;6.950;2024-02-28T01:12:30;38.00;;;17.83;;
64857;SDS011;51335;51.148;6.950;2024-02-28T01:13:01;42.42;;;19.17;;
64857;SDS011;51335;51.148;6.950;2024-02-28T01:13:31;46.58;;;19.17;;
64857;SDS011;51335;51.148;6.950;2024-02-28T01:14:01;42.90;;;19.05;;
64857;SDS011;51335;51.148;6.950;2024-02-28T01:14:31;38.58;;;18.13;;
64857;SDS011;51335;51.148;6.950;2024-02-28T01:15:02;40.03;;;18.73;;
64857;SDS011;51335;51.148;6.950;2024-02-28T01:15:32;47.90;;;19.35;;
64857;SDS011;51335;51.148;6.950;2024-02-28T01:16:03;36.15;;;18.17;;
64857;SDS011;51335;51.148;6.950;2024-02-28T01:16:33;42.40;;;17.85;;
64857;SDS011;51335;51.148;6.950;2024-02-28T01:17:04;40.25;;;19.10;;
64857;SDS011;51335;51.148;6.950;2024-02-28T01:17:34;44.88;;;18.70;;
64857;SDS011;51335;51.148;6.950;2024-02-28T01:18:04;43.47;;;18.30;;
64857;SDS011;51335;51.148;6.950;2024-02-28T01:18:34;42.92;;;19.05;;
64857;SDS011;51335;51.148;6.950;2024-02-28T01:19:05;42.65;;;18.42;;
64857;SDS011;51335;51.148;6.950;2024-02-28T01:19:35;44.60;;;18.58;;
64857;SDS011;51335;51.148;6.950;2024-02-28T01:20:06;45.10;;;18.65;;
64857;SDS011;51335;51.148;6.950;2024-02-28T01:20:37;40.92;;;17.77;;
64857;SDS011;51335;51.148;6.950;2024-02-28T01:21:07;43.00;;;19.08;;
64857;SDS011;51335;51.148;6.950;2024-02-28T01:21:38;46.00;;;19.42;;
64857;SDS011;51335;51.148;6.950;2024-02-28T01:22:08;45.90;;;19.40;;
64857;SDS011;51335;51.148;6.950;2024-02-28T01:22:39;45.40;;;19.35;;
64857;SDS011;51335;51.148;6.950;2024-02-28T01:23:09;47.33;;;19.58;;
64857;SDS011;51335;51.148;6.950;2024-02-28T01:23:39;50.28;;;20.67;;
64857;SDS011;51335;51.148;6.950;2024-02-28T01:24:09;49.33;;;20.40;;
64857;SDS011;51335;51.148;6.950;2024-02-28T01:24:40;48.35;;;20.50;;
64857;SDS011;51335;51.148;6.950;2024-02-28T01:25:10;42.72;;;18.98;;
64857;SDS011;51335;51.148;6.950;2024-02-28T01:25:40;48.33;;;20.33;;
64857;SDS011;51335;51.148;6.950;2024-02-28T01:26:11;47.55;;;19.60;;
64857;SDS011;51335;51.148;6.950;2024-02-28T01:26:41;50.00;;;20.50;;
64857;SDS011;51335;51.148;6.950;2024-02-28T01:27:11;44.83;;;19.33;;
64857;SDS011;51335;51.148;6.950;2024-02-28T01:27:41;51.55;;;21.58;;
64857;SDS011;51335;51.148;6.950;2024-02-28T01:28:12;54.60;;;19.83;;
64857;SDS011;51335;51.148;6.950;2024-02-28T01:28:42;50.88;;;21.30;;
64857;SDS011;51335;51.148;6.950;2024-02-28T01:29:12;68.30;;;22.50;;
64857;SDS011;51335;51.148;6.950;2024-02-28T01:29:42;61.65;;;22.00;;
64857;SDS011;51335;51.148;6.950;2024-02-28T01:30:13;59.70;;;22.48;;
64857;SDS011;51335;51.148;6.950;2024-02-28T01:30:43;62.53;;;22.77;;
64857;SDS011;51335;51.148;6.950;2024-02-28T01:31:13;65.40;;;23.38;;
64857;SDS011;51335;51.148;6.950;2024-02-28T01:31:44;64.15;;;22.77;;
64857;SDS011;51335;51.148;6.950;2024-02-28T01:32:14;57.10;;;22.77;;
64857;SDS011;51335;51.148;6.950;2024-02-28T01:32:44;71.72;;;24.63;;
64857;SDS011;51335;51.148;6.950;2024-02-28T01:33:14;64.47;;;22.85;;
64857;SDS011;51335;51.148;6.950;2024-02-28T01:33:45;79.35;;;24.70;;
64857;SDS011;51335;51.148;6.950;2024-02-28T01:34:15;79.50;;;23.60;;
64857;SDS011;51335;51.148;6.950;2024-02-28T01:34:45;75.40;;;25.83;;
64857;SDS011;51335;51.148;6.950;2024-02-28T01:35:16;74.68;;;22.95;;
64857;SDS011;51335;51.148;6.950;2024-02-28T01:35:46;70.53;;;22.35;;
64857;SDS011;51335;51.148;6.950;2024-02-28T01:36:16;68.63;;;23.65;;
64857;SDS011;51335;51.148;6.950;2024-02-28T01:36:46;79.63;;;23.40;;
64857;SDS011;51335;51.148;6.950;2024-02-28T01:37:17;72.20;;;23.20;;
64857;SDS011;51335;51.148;6.950;2024-02-28T01:37:47;69.72;;;24.17;;
64857;SDS011;51335;51.148;6.950;2024-02-28T01:38:17;61.10;;;22.88;;
64857;SDS011;51335;51.148;6.950;2024-02-28T01:38:47;66.82;;;23.02;;
64857;SDS011;51335;51.148;6.950;2024-02-28T01:39:18;69.15;;;23.95;;
64857;SDS011;51335;51.148;6.950;2024-02-28T01:39:48;75.35;;;24.92;;
64857;SDS011;51335;51.148;6.950;2024-02-28T01:40:18;68.43;;;24.17;;
64857;SDS011;51335;51.148;6.950;2024-02-28T01:40:48;61.00;;;22.10;;
64857;SDS011;51335;51.148;6.950;2024-02-28T01:41:18;66.38;;;24.58;;
64857;SDS011;51335;51.148;6.950;2024-02-28T01:41:54;74.57;;;24.23;;
64857;SDS011;51335;51.148;6.950;2024-02-28T01:42:25;61.40;;;22.13;;
64857;SDS011;51335;51.148;6.950;2024-02-28T01:43:01;70.60;;;22.73;;
64857;SDS011;51335;51.148;6.950;2024-02-28T01:43:41;70.75;;;22.98;;
64857;SDS011;51335;51.148;6.950;2024-02-28T01:44:11;70.97;;;23.15;;
64857;SDS011;51335;51.148;6.950;2024-02-28T01:44:46;65.18;;;22.42;;
64857;SDS011;51335;51.148;6.950;2024-02-28T01:45:17;64.93;;;21.75;;
64857;SDS011;51335;51.148;6.950;2024-02-28T01:45:48;67.25;;;23.45;;
64857;SDS011;51335;51.148;6.950;2024-02-28T01:46:53;66.20;;;22.30;;
64857;SDS011;51335;51.148;6.950;2024-02-28T01:47:24;65.68;;;23.65;;
64857;SDS011;51335;51.148;6.950;2024-02-28T01:47:54;76.25;;;23.55;;
64857;SDS011;51335;51.148;6.950;2024-02-28T01:48:24;71.60;;;23.90;;
64857;SDS011;51335;51.148;6.950;2024-02-28T01:48:55;71.45;;;25.05;;
64857;SDS011;51335;51.148;6.950;2024-02-28T01:49:26;66.13;;;23.00;;
64857;SDS011;51335;51.148;6.950;2024-02-28T01:49:56;73.43;;;25.35;;
64857;SDS011;51335;51.148;6.950;2024-02-28T01:50:26;64.47;;;22.40;;
64857;SDS011;51335;51.148;6.950;2024-02-28T01:50:57;76.70;;;24.65;;
64857;SDS011;51335;51.148;6.950;2024-02-28T01:51:27;83.35;;;26.40;;
64857;SDS011;51335;51.148;6.950;2024-02-28T01:51:57;83.57;;;25.20;;
64857;SDS011;51335;51.148;6.950;2024-02-28T01:52:28;78.78;;;25.67;;
64857;SDS011;51335;51.148;6.950;2024-02-28T01:52:59;90.70;;;26.77;;
64857;SDS011;51335;51.148;6.950;2024-02-28T01:53:30;85.55;;;26.67;;
64857;SDS011;51335;51.148;6.950;2024-02-28T01:54:00;83.53;;;25.67;;
64857;SDS011;51335;51.148;6.950;2024-02-28T01:54:30;89.70;;;27.88;;
64857;SDS011;51335;51.148;6.950;2024-02-28T01:55:02;88.90;;;27.33;;
64857;SDS011;51335;51.148;6.950;2024-02-28T01:55:33;82.20;;;26.27;;
64857;SDS011;51335;51.148;6.950;2024-02-28T01:56:03;82.55;;;25.63;;
64857;SDS011;51335;51.148;6.950;2024-02-28T01:56:34;84.80;;;26.63;;
64857;SDS011;51335;51.148;6.950;2024-02-28T01:57:04;72.30;;;24.48;;
64857;SDS011;51335;51.148;6.950;2024-02-28T01:57:36;75.88;;;25.30;;
64857;SDS011;51335;51.148;6.950;2024-02-28T01:58:07;81.63;;;25.35;;
64857;SDS011;51335;51.148;6.950;2024-02-28T01:58:37;75.65;;;24.85;;
64857;SDS011;51335;51.148;6.950;2024-02-28T01:59:08;76.50;;;25.70;;
64857;SDS011;51335;51.148;6.950;2024-02-28T01:59:40;79.38;;;25.58;;
64857;SDS011;51335;51.148;6.950;2024-02-28T02:00:11;75.60;;;24.98;;
64857;SDS011;51335;51.148;6.950;2024-02-28T02:00:41;87.97;;;26.58;;
64857;SDS011;51335;51.148;6.950;2024-02-28T02:01:13;86.43;;;26.85;;
64857;SDS011;51335;51.148;6.950;2024-02-28T02:01:44;72.47;;;25.08;;
64857;SDS011;51335;51.148;6.950;2024-02-28T02:02:15;75.78;;;23.55;;
64857;SDS011;51335;51.148;6.950;2024-02-28T02:02:45;72.38;;;24.92;;
64857;SDS011;51335;51.148;6.950;2024-02-28T02:03:16;81.03;;;25.42;;
64857;SDS011;51335;51.148;6.950;2024-02-28T02:03:46;76.82;;;26.25;;
64857;SDS011;51335;51.148;6.950;2024-02-28T02:04:17;76.45;;;24.67;;
64857;SDS011;51335;51.148;6.950;2024-02-28T02:04:47;75.22;;;24.33;;
64857;SDS011;51335;51.148;6.950;2024-02-28T02:05:17;76.78;;;25.23;;
64857;SDS011;51335;51.148;6.950;2024-02-28T02:05:47;72.25;;;23.90;;
64857;SDS011;51335;51.148;6.950;2024-02-28T02:06:18;74.85;;;24.92;;
64857;SDS011;51335;51.148;6.950;2024-02-28T02:06:48;74.35;;;23.50;;
64857;SDS011;51335;51.148;6.950;2024-02-28T02:07:19;78.05;;;24.88;;
64857;SDS011;51335;51.148;6.950;2024-02-28T02:07:49;74.13;;;24.85;;
64857;SDS011;51335;51.148;6.950;2024-02-28T02:08:20;71.38;;;22.45;;
64857;SDS011;51335;51.148;6.950;2024-02-28T02:08:52;76.53;;;23.15;;
64857;SDS011;51335;51.148;6.950;2024-02-28T02:09:23;73.32;;;23.95;;
64857;SDS011;51335;51.148;6.950;2024-02-28T02:09:54;84.95;;;24.92;;
64857;SDS011;51335;51.148;6.950;2024-02-28T02:10:25;69.85;;;24.25;;
64857;SDS011;51335;51.148;6.950;2024-02-28T02:10:55;68.50;;;22.33;;
64857;SDS011;51335;51.148;6.950;2024-02-28T02:11:25;70.57;;;23.67;;
64857;SDS011;51335;51.148;6.950;2024-02-28T02:11:56;85.30;;;24.75;;
64857;SDS011;51335;51.148;6.950;2024-02-28T02:12:26;83.50;;;24.90;;
64857;SDS011;51335;51.148;6.950;2024-02-28T02:13:03;77.40;;;24.05;;
64857;SDS011;51335;51.148;6.950;2024-02-28T02:13:34;74.43;;;24.27;;
64857;SDS011;51335;51.148;6.950;2024-02-28T02:14:05;84.85;;;24.45;;
64857;SDS011;51335;51.148;6.950;2024-02-28T02:14:35;72.57;;;24.98;;
64857;SDS011;51335;51.148;6.950;2024-02-28T02:15:05;83.20;;;24.65;;
64857;SDS011;51335;51.148;6.950;2024-02-28T02:15:36;89.95;;;25.25;;
64857;SDS011;51335;51.148;6.950;2024-02-28T02:16:06;89.55;;;24.48;;
64857;SDS011;51335;51.148;6.950;2024-02-28T02:16:36;80.80;;;26.23;;
64857;SDS011;51335;51.148;6.950;2024-02-28T02:17:07;73.15;;;24.30;;
64857;SDS011;51335;51.148;6.950;2024-02-28T02:17:37;102.75;;;25.02;;
64857;SDS011;51335;51.148;6.950;2024-02-28T02:18:07;93.28;;;25.80;;
64857;SDS011;51335;51.148;6.950;2024-02-28T02:18:38;92.93;;;26.08;;
64857;SDS011;51335;51.148;6.950;2024-02-28T02:19:08;87.55;;;25.05;;
64857;SDS011;51335;51.148;6.950;2024-02-28T02:19:39;87.10;;;24.63;;
64857;SDS011;51335;51.148;6.950;2024-02-28T02:20:10;90.55;;;26.42;;
64857;SDS011;51335;51.148;6.950;2024-02-28T02:20:44;88.32;;;23.83;;
64857;SDS011;51335;51.148;6.950;2024-02-28T02:21:20;81.65;;;25.48;;
64857;SDS011;51335;51.148;6.950;2024-02-28T02:21:53;76.43;;;23.48;;
64857;SDS011;51335;51.148;6.950;2024-02-28T02:23:02;83.18;;;25.48;;
64857;SDS011;51335;51.148;6.950;2024-02-28T02:23:33;82.03;;;25.52;;
64857;SDS011;51335;51.148;6.950;2024-02-28T02:24:03;81.75;;;24.58;;
64857;SDS011;51335;51.148;6.950;2024-02-28T02:24:34;78.38;;;25.38;;
64857;SDS011;51335;51.148;6.950;2024-02-28T02:25:04;75.50;;;25.40;;
64857;SDS011;51335;51.148;6.950;2024-02-28T02:25:34;71.38;;;23.90;;
64857;SDS011;51335;51.148;6.950;2024-02-28T02:26:13;75.05;;;25.05;;
64857;SDS011;51335;51.148;6.950;2024-02-28T02:26:44;86.10;;;26.40;;
64857;SDS011;51335;51.148;6.950;2024-02-28T02:27:14;67.05;;;24.48;;
64857;SDS011;51335;51.148;6.950;2024-02-28T02:27:44;77.25;;;26.05;;
64857;SDS011;51335;51.148;6.950;2024-02-28T02:28:15;71.68;;;24.70;;
64857;SDS011;51335;51.148;6.950;2024-02-28T02:28:45;83.72;;;26.00;;
64857;SDS011;51335;51.148;6.950;2024-02-28T02:29:15;73.40;;;25.58;;
64857;SDS011;51335;51.148;6.950;2024-02-28T02:29:45;74.97;;;25.80;;
64857;SDS011;51335;51.148;6.950;2024-02-28T02:30:16;80.88;;;26.60;;
64857;SDS011;51335;51.148;6.950;2024-02-28T02:30:46;75.95;;;26.10;;
64857;SDS011;51335;51.148;6.950;2024-02-28T02:31:16;74.30;;;25.85;;
64857;SDS011;51335;51.148;6.950;2024-02-28T02:31:47;73.30;;;25.52;;
64857;SDS011;51335;51.148;6.950;2024-02-28T02:32:17;73.60;;;26.35;;
64857;SDS011;51335;51.148;6.950;2024-02-28T02:32:47;64.45;;;24.88;;
64857;SDS011;51335;51.148;6.950;2024-02-28T02:33:17;69.85;;;25.75;;
64857;SDS011;51335;51.148;6.950;2024-02-28T02:33:48;74.72;;;25.65;;
64857;SDS011;51335;51.148;6.950;2024-02-28T02:34:18;67.45;;;25.25;;
64857;SDS011;51335;51.148;6.950;2024-02-28T02:34:48;70.93;;;24.85;;
64857;SDS011;51335;51.148;6.950;2024-02-28T02:35:18;67.75;;;23.80;;
64857;SDS011;51335;51.148;6.950;2024-02-28T02:35:49;61.63;;;23.90;;
64857;SDS011;51335;51.148;6.950;2024-02-28T02:36:19;64.30;;;25.13;;
64857;SDS011;51335;51.148;6.950;2024-02-28T02:36:49;66.45;;;25.98;;
64857;SDS011;51335;51.148;6.950;2024-02-28T02:37:19;70.75;;;24.98;;
64857;SDS011;51335;51.148;6.950;2024-02-28T02:37:50;64.82;;;25.73;;
64857;SDS011;51335;51.148;6.950;2024-02-28T02:38:20;68.63;;;24.25;;
64857;SDS011;51335;51.148;6.950;2024-02-28T02:38:50;70.80;;;25.08;;
64857;SDS011;51335;51.148;6.950;2024-02-28T02:39:20;70.25;;;24.20;;
64857;SDS011;51335;51.148;6.950;2024-02-28T02:39:51;69.93;;;25.65;;
64857;SDS011;51335;51.148;6.950;2024-02-28T02:40:21;62.28;;;25.83;;
64857;SDS011;51335;51.148;6.950;2024-02-28T02:40:52;69.65;;;24.58;;
64857;SDS011;51335;51.148;6.950;2024-02-28T02:41:22;66.57;;;25.08;;
64857;SDS011;51335;51.148;6.950;2024-02-28T02:41:52;67.75;;;24.85;;
64857;SDS011;51335;51.148;6.950;2024-02-28T02:42:22;62.85;;;23.52;;
64857;SDS011;51335;51.148;6.950;2024-02-28T02:42:53;66.50;;;24.98;;
64857;SDS011;51335;51.148;6.950;2024-02-28T02:43:23;72.38;;;25.75;;
64857;SDS011;51335;51.148;6.950;2024-02-28T02:43:53;69.72;;;27.38;;
64857;SDS011;51335;51.148;6.950;2024-02-28T02:44:23;70.53;;;26.77;;
64857;SDS011;51335;51.148;6.950;2024-02-28T02:44:54;72.43;;;26.85;;
64857;SDS011;51335;51.148;6.950;2024-02-28T02:45:24;61.75;;;24.08;;
64857;SDS011;51335;51.148;6.950;2024-02-28T02:45:54;68.10;;;26.60;;
64857;SDS011;51335;51.148;6.950;2024-02-28T02:46:24;70.78;;;26.77;;
64857;SDS011;51335;51.148;6.950;2024-02-28T02:46:55;65.90;;;25.35;;
64857;SDS011;51335;51.148;6.950;2024-02-28T02:47:25;71.28;;;25.85;;
64857;SDS011;51335;51.148;6.950;2024-02-28T02:47:55;66.00;;;25.15;;
64857;SDS011;51335;51.148;6.950;2024-02-28T02:48:25;68.78;;;25.65;;
64857;SDS011;51335;51.148;6.950;2024-02-28T02:48:56;70.57;;;26.85;;
64857;SDS011;51335;51.148;6.950;2024-02-28T02:49:26;70.47;;;26.30;;
64857;SDS011;51335;51.148;6.950;2024-02-28T02:49:56;75.45;;;26.83;;
64857;SDS011;51335;51.148;6.950;2024-02-28T02:50:26;69.05;;;26.10;;
64857;SDS011;51335;51.148;6.950;2024-02-28T02:50:57;80.65;;;28.15;;
64857;SDS011;51335;51.148;6.950;2024-02-28T02:51:27;75.60;;;26.75;;
64857;SDS011;51335;51.148;6.950;2024-02-28T02:51:57;75.63;;;28.05;;
64857;SDS011;51335;51.148;6.950;2024-02-28T02:52:27;81.97;;;27.02;;
64857;SDS011;51335;51.148;6.950;2024-02-28T02:52:58;79.00;;;26.58;;
64857;SDS011;51335;51.148;6.950;2024-02-28T02:53:28;77.40;;;26.65;;
64857;SDS011;51335;51.148;6.950;2024-02-28T02:53:58;81.13;;;28.63;;
64857;SDS011;51335;51.148;6.950;2024-02-28T02:54:28;78.75;;;27.67;;
64857;SDS011;51335;51.148;6.950;2024-02-28T02:54:59;85.03;;;28.25;;
64857;SDS011;51335;51.148;6.950;2024-02-28T02:55:29;79.15;;;27.20;;
64857;SDS011;51335;51.148;6.950;2024-02-28T02:55:59;75.88;;;27.00;;
64857;SDS011;51335;51.148;6.950;2024-02-28T02:56:30;79.93;;;26.58;;
64857;SDS011;51335;51.148;6.950;2024-02-28T02:57:00;69.07;;;26.40;;
64857;SDS011;51335;51.148;6.950;2024-02-28T02:57:31;76.00;;;27.23;;
64857;SDS011;51335;51.148;6.950;2024-02-28T02:58:01;71.82;;;25.80;;
64857;SDS011;51335;51.148;6.950;2024-02-28T02:58:32;74.25;;;26.58;;
64857;SDS011;51335;51.148;6.950;2024-02-28T02:59:02;71.70;;;26.77;;
64857;SDS011;51335;51.148;6.950;2024-02-28T02:59:32;80.43;;;27.40;;